sensor_id;sensor_type;location;lat;lon;timestamp;P1;durP1;ratioP1;P2;durP2;ratioP2
10432;SDS011;5263;48.680;9.004;2023-08-12T00:00:09;4.60;;;4.23;;
10432;SDS011;5263;48.680;9.004;2023-08-12T00:02:42;4.23;;;3.80;;
10432;SDS011;5263;48.680;9.004;2023-08-12T00:05:08;4.53;;;4.13;;
10432;SDS011;5263;48.680;9.004;2023-08-12T00:07:38;4.60;;;4.17;;
10432;SDS011;5263;48.680;9.004;2023-08-12T00:10:08;4.63;;;4.13;;
10432;SDS011;5263;48.680;9.004;2023-08-12T00:12:35;6.03;;;4.93;;
10432;SDS011;5263;48.680;9.004;2023-08-12T00:15:01;5.67;;;4.93;;
10432;SDS011;5263;48.680;9.004;2023-08-12T00:17:28;5.93;;;4.90;;
10432;SDS011;5263;48.680;9.004;2023-08-12T00:19:53;6.17;;;5.20;;
10432;SDS011;5263;48.680;9.004;2023-08-12T00:22:19;9.23;;;5.50;;
10432;SDS011;5263;48.680;9.004;2023-08-12T00:24:44;5.43;;;4.93;;
10432;SDS011;5263;48.680;9.004;2023-08-12T00:27:10;5.77;;;4.57;;
10432;SDS011;5263;48.680;9.004;2023-08-12T00:29:36;9.37;;;4.37;;
10432;SDS011;5263;48.680;9.004;2023-08-12T00:32:01;4.80;;;3.70;;
10432;SDS011;5263;48.680;9.004;2023-08-12T00:34:27;5.90;;;4.20;;
10432;SDS011;5263;48.680;9.004;2023-08-12T00:36:53;6.60;;;4.30;;
10432;SDS011;5263;48.680;9.004;2023-08-12T00:39:18;4.67;;;4.20;;
10432;SDS011;5263;48.680;9.004;2023-08-12T00:41:44;5.07;;;4.60;;
10432;SDS011;5263;48.680;9.004;2023-08-12T00:44:10;5.13;;;4.63;;
10432;SDS011;5263;48.680;9.004;2023-08-12T00:46:36;4.93;;;4.50;;
10432;SDS011;5263;48.680;9.004;2023-08-12T00:49:03;6.37;;;5.37;;
10432;SDS011;5263;48.680;9.004;2023-08-12T00:51:29;8.87;;;5.60;;
10432;SDS011;5263;48.680;9.004;2023-08-12T00:53:56;5.17;;;4.67;;
10432;SDS011;5263;48.680;9.004;2023-08-12T00:56:23;4.40;;;4.10;;
10432;SDS011;5263;48.680;9.004;2023-08-12T00:58:49;6.13;;;4.77;;
10432;SDS011;5263;48.680;9.004;2023-08-12T01:01:15;5.43;;;4.93;;
10432;SDS011;5263;48.680;9.004;2023-08-12T01:03:42;7.10;;;4.30;;
10432;SDS011;5263;48.680;9.004;2023-08-12T01:06:08;5.87;;;4.50;;
10432;SDS011;5263;48.680;9.004;2023-08-12T01:08:34;7.97;;;4.27;;
10432;SDS011;5263;48.680;9.004;2023-08-12T01:11:10;8.47;;;4.27;;
10432;SDS011;5263;48.680;9.004;2023-08-12T01:16:47;4.87;;;4.47;;
10432;SDS011;5263;48.680;9.004;2023-08-12T01:19:21;4.67;;;3.87;;
10432;SDS011;5263;48.680;9.004;2023-08-12T01:21:59;4.57;;;4.17;;
10432;SDS011;5263;48.680;9.004;2023-08-12T01:24:26;3.83;;;3.53;;
10432;SDS011;5263;48.680;9.004;2023-08-12T01:26:58;4.43;;;3.83;;
10432;SDS011;5263;48.680;9.004;2023-08-12T01:29:24;5.13;;;3.53;;
10432;SDS011;5263;48.680;9.004;2023-08-12T01:31:51;3.97;;;3.67;;
10432;SDS011;5263;48.680;9.004;2023-08-12T01:34:30;3.63;;;3.33;;
10432;SDS011;5263;48.680;9.004;2023-08-12T01:37:11;4.57;;;3.50;;
10432;SDS011;5263;48.680;9.004;2023-08-12T01:39:42;3.27;;;3.07;;
10432;SDS011;5263;48.680;9.004;2023-08-12T01:42:10;7.03;;;3.53;;
10432;SDS011;5263;48.680;9.004;2023-08-12T01:44:36;4.07;;;3.73;;
10432;SDS011;5263;48.680;9.004;2023-08-12T01:47:02;4.33;;;4.03;;
10432;SDS011;5263;48.680;9.004;2023-08-12T01:49:27;5.37;;;3.97;;
10432;SDS011;5263;48.680;9.004;2023-08-12T01:51:53;5.80;;;4.00;;
10432;SDS011;5263;48.680;9.004;2023-08-12T01:54:19;5.57;;;4.10;;
10432;SDS011;5263;48.680;9.004;2023-08-12T01:56:45;5.20;;;3.70;;
10432;SDS011;5263;48.680;9.004;2023-08-12T01:59:10;4.53;;;4.20;;
10432;SDS011;5263;48.680;9.004;2023-08-12T02:01:36;3.30;;;3.00;;
10432;SDS011;5263;48.680;9.004;2023-08-12T02:04:01;6.13;;;3.60;;
10432;SDS011;5263;48.680;9.004;2023-08-12T02:06:27;4.67;;;4.30;;
10432;SDS011;5263;48.680;9.004;2023-08-12T02:08:52;3.57;;;3.37;;
10432;SDS011;5263;48.680;9.004;2023-08-12T02:11:18;5.47;;;4.17;;
10432;SDS011;5263;48.680;9.004;2023-08-12T02:13:44;6.80;;;3.30;;
10432;SDS011;5263;48.680;9.004;2023-08-12T02:16:09;4.43;;;4.07;;
10432;SDS011;5263;48.680;9.004;2023-08-12T02:18:35;6.23;;;3.77;;
10432;SDS011;5263;48.680;9.004;2023-08-12T02:21:00;3.87;;;3.67;;
10432;SDS011;5263;48.680;9.004;2023-08-12T02:23:26;4.57;;;4.17;;
10432;SDS011;5263;48.680;9.004;2023-08-12T02:25:51;4.17;;;3.77;;
10432;SDS011;5263;48.680;9.004;2023-08-12T02:28:19;4.03;;;3.73;;
10432;SDS011;5263;48.680;9.004;2023-08-12T02:30:44;4.17;;;3.80;;
10432;SDS011;5263;48.680;9.004;2023-08-12T02:33:10;3.73;;;3.43;;
10432;SDS011;5263;48.680;9.004;2023-08-12T02:35:36;3.43;;;3.23;;
10432;SDS011;5263;48.680;9.004;2023-08-12T02:38:01;5.93;;;3.70;;
10432;SDS011;5263;48.680;9.004;2023-08-12T02:40:27;3.63;;;3.43;;
10432;SDS011;5263;48.680;9.004;2023-08-12T02:42:52;3.97;;;3.23;;
10432;SDS011;5263;48.680;9.004;2023-08-12T02:45:18;3.43;;;3.23;;
10432;SDS011;5263;48.680;9.004;2023-08-12T02:47:43;3.83;;;3.40;;
10432;SDS011;5263;48.680;9.004;2023-08-12T02:50:09;3.70;;;3.47;;
10432;SDS011;5263;48.680;9.004;2023-08-12T02:52:35;3.30;;;3.10;;
10432;SDS011;5263;48.680;9.004;2023-08-12T02:55:00;3.37;;;3.07;;
10432;SDS011;5263;48.680;9.004;2023-08-12T02:57:26;4.57;;;4.00;;
10432;SDS011;5263;48.680;9.004;2023-08-12T02:59:51;4.50;;;4.10;;
10432;SDS011;5263;48.680;9.004;2023-08-12T03:02:17;3.63;;;3.43;;
10432;SDS011;5263;48.680;9.004;2023-08-12T03:04:42;4.13;;;3.73;;
10432;SDS011;5263;48.680;9.004;2023-08-12T03:07:08;4.33;;;3.43;;
10432;SDS011;5263;48.680;9.004;2023-08-12T03:09:34;4.23;;;3.83;;
10432;SDS011;5263;48.680;9.004;2023-08-12T03:12:00;7.10;;;3.90;;
10432;SDS011;5263;48.680;9.004;2023-08-12T03:14:28;3.90;;;3.60;;
10432;SDS011;5263;48.680;9.004;2023-08-12T03:16:54;4.93;;;3.70;;
10432;SDS011;5263;48.680;9.004;2023-08-12T03:19:20;4.50;;;3.33;;
10432;SDS011;5263;48.680;9.004;2023-08-12T03:21:46;5.10;;;3.57;;
10432;SDS011;5263;48.680;9.004;2023-08-12T03:24:11;3.87;;;3.20;;
10432;SDS011;5263;48.680;9.004;2023-08-12T03:26:37;3.63;;;3.17;;
10432;SDS011;5263;48.680;9.004;2023-08-12T03:29:03;4.80;;;3.53;;
10432;SDS011;5263;48.680;9.004;2023-08-12T03:31:28;3.77;;;3.33;;
10432;SDS011;5263;48.680;9.004;2023-08-12T03:33:54;3.30;;;3.10;;
10432;SDS011;5263;48.680;9.004;2023-08-12T03:36:19;3.93;;;3.37;;
10432;SDS011;5263;48.680;9.004;2023-08-12T03:38:45;3.50;;;3.30;;
10432;SDS011;5263;48.680;9.004;2023-08-12T03:41:10;3.67;;;3.43;;
10432;SDS011;5263;48.680;9.004;2023-08-12T03:43:36;3.53;;;3.20;;
10432;SDS011;5263;48.680;9.004;2023-08-12T03:46:02;4.13;;;3.77;;
10432;SDS011;5263;48.680;9.004;2023-08-12T03:48:28;4.17;;;3.93;;
10432;SDS011;5263;48.680;9.004;2023-08-12T03:50:54;6.23;;;4.07;;
10432;SDS011;5263;48.680;9.004;2023-08-12T03:53:19;3.50;;;3.20;;
10432;SDS011;5263;48.680;9.004;2023-08-12T03:55:45;3.80;;;3.57;;
10432;SDS011;5263;48.680;9.004;2023-08-12T03:58:10;4.07;;;3.40;;
10432;SDS011;5263;48.680;9.004;2023-08-12T04:00:39;5.80;;;3.40;;
10432;SDS011;5263;48.680;9.004;2023-08-12T04:03:06;4.37;;;3.00;;
10432;SDS011;5263;48.680;9.004;2023-08-12T04:05:31;5.00;;;3.60;;
10432;SDS011;5263;48.680;9.004;2023-08-12T04:07:57;3.80;;;3.43;;
10432;SDS011;5263;48.680;9.004;2023-08-12T04:10:22;3.73;;;3.53;;
10432;SDS011;5263;48.680;9.004;2023-08-12T04:12:48;3.93;;;3.57;;
10432;SDS011;5263;48.680;9.004;2023-08-12T04:15:14;3.47;;;3.27;;
10432;SDS011;5263;48.680;9.004;2023-08-12T04:17:39;4.53;;;4.17;;
10432;SDS011;5263;48.680;9.004;2023-08-12T04:20:06;4.03;;;3.70;;
10432;SDS011;5263;48.680;9.004;2023-08-12T04:22:32;4.90;;;2.63;;
10432;SDS011;5263;48.680;9.004;2023-08-12T04:24:58;3.57;;;3.03;;
10432;SDS011;5263;48.680;9.004;2023-08-12T04:27:23;3.83;;;3.50;;
10432;SDS011;5263;48.680;9.004;2023-08-12T04:29:49;6.00;;;3.50;;
10432;SDS011;5263;48.680;9.004;2023-08-12T04:32:14;3.33;;;3.13;;
10432;SDS011;5263;48.680;9.004;2023-08-12T04:34:40;4.03;;;3.73;;
10432;SDS011;5263;48.680;9.004;2023-08-12T04:37:05;4.07;;;3.67;;
10432;SDS011;5263;48.680;9.004;2023-08-12T04:39:31;5.80;;;3.23;;
10432;SDS011;5263;48.680;9.004;2023-08-12T04:41:57;3.77;;;3.57;;
10432;SDS011;5263;48.680;9.004;2023-08-12T04:44:23;3.73;;;3.43;;
10432;SDS011;5263;48.680;9.004;2023-08-12T04:46:48;5.13;;;3.73;;
10432;SDS011;5263;48.680;9.004;2023-08-12T04:49:15;3.70;;;3.50;;
10432;SDS011;5263;48.680;9.004;2023-08-12T04:51:41;4.80;;;3.47;;
10432;SDS011;5263;48.680;9.004;2023-08-12T04:54:07;5.70;;;4.07;;
10432;SDS011;5263;48.680;9.004;2023-08-12T04:56:33;7.83;;;3.80;;
10432;SDS011;5263;48.680;9.004;2023-08-12T04:58:58;6.10;;;3.87;;
10432;SDS011;5263;48.680;9.004;2023-08-12T05:01:24;4.73;;;4.33;;
10432;SDS011;5263;48.680;9.004;2023-08-12T05:03:49;5.97;;;3.90;;
10432;SDS011;5263;48.680;9.004;2023-08-12T05:06:15;4.00;;;3.63;;
10432;SDS011;5263;48.680;9.004;2023-08-12T05:08:40;3.50;;;3.27;;
10432;SDS011;5263;48.680;9.004;2023-08-12T05:11:06;3.40;;;2.97;;
10432;SDS011;5263;48.680;9.004;2023-08-12T05:13:32;4.67;;;4.27;;
10432;SDS011;5263;48.680;9.004;2023-08-12T05:15:57;4.47;;;4.07;;
10432;SDS011;5263;48.680;9.004;2023-08-12T05:18:23;4.23;;;3.93;;
10432;SDS011;5263;48.680;9.004;2023-08-12T05:20:49;4.73;;;4.37;;
10432;SDS011;5263;48.680;9.004;2023-08-12T05:23:16;4.43;;;4.03;;
10432;SDS011;5263;48.680;9.004;2023-08-12T05:25:42;4.37;;;3.97;;
10432;SDS011;5263;48.680;9.004;2023-08-12T05:28:07;5.80;;;4.43;;
10432;SDS011;5263;48.680;9.004;2023-08-12T05:30:33;4.83;;;4.00;;
10432;SDS011;5263;48.680;9.004;2023-08-12T05:32:59;6.87;;;3.30;;
10432;SDS011;5263;48.680;9.004;2023-08-12T05:35:25;7.93;;;3.17;;
10432;SDS011;5263;48.680;9.004;2023-08-12T05:37:50;3.60;;;3.30;;
10432;SDS011;5263;48.680;9.004;2023-08-12T05:40:16;5.93;;;3.90;;
10432;SDS011;5263;48.680;9.004;2023-08-12T05:42:41;5.47;;;3.80;;
10432;SDS011;5263;48.680;9.004;2023-08-12T05:45:07;4.67;;;4.30;;
10432;SDS011;5263;48.680;9.004;2023-08-12T05:47:33;4.47;;;3.93;;
10432;SDS011;5263;48.680;9.004;2023-08-12T05:49:59;4.60;;;4.30;;
10432;SDS011;5263;48.680;9.004;2023-08-12T05:52:24;4.20;;;3.90;;
10432;SDS011;5263;48.680;9.004;2023-08-12T05:54:50;5.73;;;4.70;;
10432;SDS011;5263;48.680;9.004;2023-08-12T05:57:15;4.53;;;4.13;;
10432;SDS011;5263;48.680;9.004;2023-08-12T05:59:41;4.00;;;3.70;;
10432;SDS011;5263;48.680;9.004;2023-08-12T06:02:06;5.40;;;4.23;;
10432;SDS011;5263;48.680;9.004;2023-08-12T06:04:32;7.77;;;4.27;;
10432;SDS011;5263;48.680;9.004;2023-08-12T06:06:57;4.63;;;4.33;;
10432;SDS011;5263;48.680;9.004;2023-08-12T06:09:23;4.13;;;3.93;;
10432;SDS011;5263;48.680;9.004;2023-08-12T06:11:48;3.30;;;3.10;;
10432;SDS011;5263;48.680;9.004;2023-08-12T06:14:14;5.17;;;3.50;;
10432;SDS011;5263;48.680;9.004;2023-08-12T06:16:39;4.17;;;3.43;;
10432;SDS011;5263;48.680;9.004;2023-08-12T06:19:05;3.27;;;2.97;;
10432;SDS011;5263;48.680;9.004;2023-08-12T06:21:30;5.33;;;3.80;;
10432;SDS011;5263;48.680;9.004;2023-08-12T06:23:56;3.40;;;3.10;;
10432;SDS011;5263;48.680;9.004;2023-08-12T06:26:22;3.40;;;3.10;;
10432;SDS011;5263;48.680;9.004;2023-08-12T06:28:47;3.97;;;3.73;;
10432;SDS011;5263;48.680;9.004;2023-08-12T06:31:13;3.53;;;3.27;;
10432;SDS011;5263;48.680;9.004;2023-08-12T06:33:38;3.80;;;3.50;;
10432;SDS011;5263;48.680;9.004;2023-08-12T06:36:04;3.30;;;3.00;;
10432;SDS011;5263;48.680;9.004;2023-08-12T06:38:30;2.57;;;2.47;;
10432;SDS011;5263;48.680;9.004;2023-08-12T06:40:55;2.50;;;2.40;;
10432;SDS011;5263;48.680;9.004;2023-08-12T06:43:21;3.90;;;2.60;;
10432;SDS011;5263;48.680;9.004;2023-08-12T06:45:47;2.87;;;2.70;;
10432;SDS011;5263;48.680;9.004;2023-08-12T06:48:12;2.67;;;2.57;;
10432;SDS011;5263;48.680;9.004;2023-08-12T06:50:38;3.23;;;3.03;;
10432;SDS011;5263;48.680;9.004;2023-08-12T06:53:03;3.20;;;3.00;;
10432;SDS011;5263;48.680;9.004;2023-08-12T06:55:29;3.30;;;3.10;;
10432;SDS011;5263;48.680;9.004;2023-08-12T06:57:55;2.87;;;2.50;;
10432;SDS011;5263;48.680;9.004;2023-08-12T07:00:20;5.20;;;2.07;;
10432;SDS011;5263;48.680;9.004;2023-08-12T07:02:46;2.90;;;1.90;;
10432;SDS011;5263;48.680;9.004;2023-08-12T07:05:12;2.73;;;2.53;;
10432;SDS011;5263;48.680;9.004;2023-08-12T07:07:37;3.00;;;2.77;;
10432;SDS011;5263;48.680;9.004;2023-08-12T07:10:03;3.37;;;2.40;;
10432;SDS011;5263;48.680;9.004;2023-08-12T07:12:30;2.30;;;2.20;;
10432;SDS011;5263;48.680;9.004;2023-08-12T07:14:55;4.27;;;2.50;;
10432;SDS011;5263;48.680;9.004;2023-08-12T07:17:21;3.80;;;2.40;;
10432;SDS011;5263;48.680;9.004;2023-08-12T07:19:47;2.80;;;2.60;;
10432;SDS011;5263;48.680;9.004;2023-08-12T07:22:12;2.93;;;1.80;;
10432;SDS011;5263;48.680;9.004;2023-08-12T07:24:38;3.07;;;2.27;;
10432;SDS011;5263;48.680;9.004;2023-08-12T07:27:03;2.60;;;1.90;;
10432;SDS011;5263;48.680;9.004;2023-08-12T07:29:29;6.53;;;2.20;;
10432;SDS011;5263;48.680;9.004;2023-08-12T07:31:55;2.60;;;2.17;;
10432;SDS011;5263;48.680;9.004;2023-08-12T07:34:21;2.53;;;2.30;;
10432;SDS011;5263;48.680;9.004;2023-08-12T07:36:46;2.13;;;2.03;;
10432;SDS011;5263;48.680;9.004;2023-08-12T07:39:12;2.47;;;1.93;;
10432;SDS011;5263;48.680;9.004;2023-08-12T07:41:38;3.00;;;2.13;;
10432;SDS011;5263;48.680;9.004;2023-08-12T07:44:04;2.33;;;2.23;;
10432;SDS011;5263;48.680;9.004;2023-08-12T07:46:29;5.07;;;2.17;;
10432;SDS011;5263;48.680;9.004;2023-08-12T07:48:55;3.47;;;1.80;;
10432;SDS011;5263;48.680;9.004;2023-08-12T07:51:21;2.20;;;1.73;;
10432;SDS011;5263;48.680;9.004;2023-08-12T07:53:47;2.60;;;2.10;;
10432;SDS011;5263;48.680;9.004;2023-08-12T07:56:13;2.17;;;1.97;;
10432;SDS011;5263;48.680;9.004;2023-08-12T07:58:38;2.00;;;1.90;;
10432;SDS011;5263;48.680;9.004;2023-08-12T08:01:04;1.90;;;1.80;;
10432;SDS011;5263;48.680;9.004;2023-08-12T08:03:30;3.47;;;1.50;;
10432;SDS011;5263;48.680;9.004;2023-08-12T08:05:56;2.10;;;1.40;;
10432;SDS011;5263;48.680;9.004;2023-08-12T08:08:21;1.60;;;1.50;;
10432;SDS011;5263;48.680;9.004;2023-08-12T08:10:47;1.67;;;1.57;;
10432;SDS011;5263;48.680;9.004;2023-08-12T08:13:12;2.87;;;1.83;;
10432;SDS011;5263;48.680;9.004;2023-08-12T08:15:38;1.70;;;1.60;;
10432;SDS011;5263;48.680;9.004;2023-08-12T08:18:03;1.53;;;1.50;;
10432;SDS011;5263;48.680;9.004;2023-08-12T08:20:29;2.50;;;2.07;;
10432;SDS011;5263;48.680;9.004;2023-08-12T08:22:55;2.73;;;1.70;;
10432;SDS011;5263;48.680;9.004;2023-08-12T08:25:21;2.50;;;1.73;;
10432;SDS011;5263;48.680;9.004;2023-08-12T08:27:47;1.70;;;1.60;;
10432;SDS011;5263;48.680;9.004;2023-08-12T08:30:13;3.30;;;1.90;;
10432;SDS011;5263;48.680;9.004;2023-08-12T08:32:38;2.08;;;1.75;;
10432;SDS011;5263;48.680;9.004;2023-08-12T08:35:04;2.30;;;1.73;;
10432;SDS011;5263;48.680;9.004;2023-08-12T08:37:30;1.73;;;1.60;;
10432;SDS011;5263;48.680;9.004;2023-08-12T08:39:55;4.30;;;1.43;;
10432;SDS011;5263;48.680;9.004;2023-08-12T08:42:21;1.85;;;1.75;;
10432;SDS011;5263;48.680;9.004;2023-08-12T08:44:50;1.20;;;1.20;;
10432;SDS011;5263;48.680;9.004;2023-08-12T08:47:18;2.40;;;1.30;;
10432;SDS011;5263;48.680;9.004;2023-08-12T08:49:49;1.70;;;1.50;;
10432;SDS011;5263;48.680;9.004;2023-08-12T08:52:15;3.28;;;1.63;;
10432;SDS011;5263;48.680;9.004;2023-08-12T08:54:42;3.27;;;1.70;;
10432;SDS011;5263;48.680;9.004;2023-08-12T08:57:08;1.90;;;1.63;;
10432;SDS011;5263;48.680;9.004;2023-08-12T08:59:34;1.23;;;1.23;;
10432;SDS011;5263;48.680;9.004;2023-08-12T09:01:59;1.80;;;1.48;;
10432;SDS011;5263;48.680;9.004;2023-08-12T09:04:25;2.38;;;1.10;;
10432;SDS011;5263;48.680;9.004;2023-08-12T09:06:52;1.95;;;1.13;;
10432;SDS011;5263;48.680;9.004;2023-08-12T09:09:19;1.40;;;1.30;;
10432;SDS011;5263;48.680;9.004;2023-08-12T09:11:47;7.93;;;1.70;;
10432;SDS011;5263;48.680;9.004;2023-08-12T09:14:13;0.85;;;0.85;;
10432;SDS011;5263;48.680;9.004;2023-08-12T09:16:39;1.02;;;1.00;;
10432;SDS011;5263;48.680;9.004;2023-08-12T09:19:05;3.85;;;1.17;;
10432;SDS011;5263;48.680;9.004;2023-08-12T09:21:30;3.40;;;1.00;;
10432;SDS011;5263;48.680;9.004;2023-08-12T09:23:56;1.17;;;1.10;;
10432;SDS011;5263;48.680;9.004;2023-08-12T09:26:27;2.47;;;1.30;;
10432;SDS011;5263;48.680;9.004;2023-08-12T09:28:53;1.27;;;1.20;;
10432;SDS011;5263;48.680;9.004;2023-08-12T09:31:26;2.55;;;1.50;;
10432;SDS011;5263;48.680;9.004;2023-08-12T09:33:53;1.20;;;1.10;;
10432;SDS011;5263;48.680;9.004;2023-08-12T09:36:23;4.97;;;1.55;;
10432;SDS011;5263;48.680;9.004;2023-08-12T09:38:48;1.60;;;1.48;;
10432;SDS011;5263;48.680;9.004;2023-08-12T09:41:14;5.43;;;1.52;;
10432;SDS011;5263;48.680;9.004;2023-08-12T09:43:44;1.88;;;1.55;;
10432;SDS011;5263;48.680;9.004;2023-08-12T09:46:13;2.20;;;1.27;;
10432;SDS011;5263;48.680;9.004;2023-08-12T09:48:39;5.18;;;1.88;;
10432;SDS011;5263;48.680;9.004;2023-08-12T09:51:05;2.67;;;1.40;;
10432;SDS011;5263;48.680;9.004;2023-08-12T09:53:32;2.70;;;1.35;;
10432;SDS011;5263;48.680;9.004;2023-08-12T09:55:58;4.75;;;1.60;;
10432;SDS011;5263;48.680;9.004;2023-08-12T09:58:29;2.10;;;1.90;;
10432;SDS011;5263;48.680;9.004;2023-08-12T10:00:56;1.60;;;1.45;;
10432;SDS011;5263;48.680;9.004;2023-08-12T10:03:22;3.22;;;2.00;;
10432;SDS011;5263;48.680;9.004;2023-08-12T10:05:49;1.42;;;1.33;;
10432;SDS011;5263;48.680;9.004;2023-08-12T10:08:15;1.83;;;1.73;;
10432;SDS011;5263;48.680;9.004;2023-08-12T10:10:42;1.92;;;1.42;;
10432;SDS011;5263;48.680;9.004;2023-08-12T10:13:09;1.88;;;1.77;;
10432;SDS011;5263;48.680;9.004;2023-08-12T10:15:36;1.70;;;1.30;;
10432;SDS011;5263;48.680;9.004;2023-08-12T10:18:03;1.35;;;1.25;;
10432;SDS011;5263;48.680;9.004;2023-08-12T10:20:30;1.88;;;1.77;;
10432;SDS011;5263;48.680;9.004;2023-08-12T10:22:57;1.35;;;1.25;;
10432;SDS011;5263;48.680;9.004;2023-08-12T10:25:25;1.85;;;1.75;;
10432;SDS011;5263;48.680;9.004;2023-08-12T10:27:57;2.03;;;1.92;;
10432;SDS011;5263;48.680;9.004;2023-08-12T10:30:22;3.95;;;1.50;;
10432;SDS011;5263;48.680;9.004;2023-08-12T10:32:48;1.60;;;1.40;;
10432;SDS011;5263;48.680;9.004;2023-08-12T10:35:15;2.63;;;1.42;;
10432;SDS011;5263;48.680;9.004;2023-08-12T10:37:40;1.65;;;1.10;;
10432;SDS011;5263;48.680;9.004;2023-08-12T10:40:09;2.03;;;1.40;;
10432;SDS011;5263;48.680;9.004;2023-08-12T10:42:48;3.70;;;1.40;;
10432;SDS011;5263;48.680;9.004;2023-08-12T10:45:15;2.30;;;1.60;;
10432;SDS011;5263;48.680;9.004;2023-08-12T10:47:53;2.55;;;1.40;;
10432;SDS011;5263;48.680;9.004;2023-08-12T10:50:36;2.47;;;1.75;;
10432;SDS011;5263;48.680;9.004;2023-08-12T10:55:48;3.92;;;1.75;;
10432;SDS011;5263;48.680;9.004;2023-08-12T10:58:23;1.40;;;1.30;;
10432;SDS011;5263;48.680;9.004;2023-08-12T11:01:11;3.53;;;1.40;;
10432;SDS011;5263;48.680;9.004;2023-08-12T11:03:42;2.00;;;1.33;;
10432;SDS011;5263;48.680;9.004;2023-08-12T11:06:09;1.52;;;1.42;;
10432;SDS011;5263;48.680;9.004;2023-08-12T11:08:35;7.93;;;1.67;;
10432;SDS011;5263;48.680;9.004;2023-08-12T11:11:01;3.95;;;1.45;;
10432;SDS011;5263;48.680;9.004;2023-08-12T11:13:27;5.03;;;1.75;;
10432;SDS011;5263;48.680;9.004;2023-08-12T11:15:54;3.72;;;1.67;;
10432;SDS011;5263;48.680;9.004;2023-08-12T11:18:31;4.28;;;1.60;;
10432;SDS011;5263;48.680;9.004;2023-08-12T11:20:57;1.88;;;1.70;;
10432;SDS011;5263;48.680;9.004;2023-08-12T11:23:23;1.50;;;1.40;;
10432;SDS011;5263;48.680;9.004;2023-08-12T11:25:49;3.20;;;1.80;;
10432;SDS011;5263;48.680;9.004;2023-08-12T11:28:15;3.42;;;1.70;;
10432;SDS011;5263;48.680;9.004;2023-08-12T11:30:42;1.63;;;1.40;;
10432;SDS011;5263;48.680;9.004;2023-08-12T11:33:09;2.75;;;1.58;;
10432;SDS011;5263;48.680;9.004;2023-08-12T11:35:35;2.03;;;1.70;;
10432;SDS011;5263;48.680;9.004;2023-08-12T11:38:02;1.67;;;1.58;;
10432;SDS011;5263;48.680;9.004;2023-08-12T11:40:29;2.67;;;1.67;;
10432;SDS011;5263;48.680;9.004;2023-08-12T11:42:55;3.50;;;1.80;;
10432;SDS011;5263;48.680;9.004;2023-08-12T11:45:22;2.22;;;1.80;;
10432;SDS011;5263;48.680;9.004;2023-08-12T11:47:49;2.28;;;1.58;;
10432;SDS011;5263;48.680;9.004;2023-08-12T11:50:18;2.78;;;1.42;;
10432;SDS011;5263;48.680;9.004;2023-08-12T11:52:45;2.05;;;1.80;;
10432;SDS011;5263;48.680;9.004;2023-08-12T11:55:12;2.25;;;1.40;;
10432;SDS011;5263;48.680;9.004;2023-08-12T11:57:40;2.60;;;1.70;;
10432;SDS011;5263;48.680;9.004;2023-08-12T12:00:08;2.97;;;1.20;;
10432;SDS011;5263;48.680;9.004;2023-08-12T12:02:39;1.65;;;1.52;;
10432;SDS011;5263;48.680;9.004;2023-08-12T12:05:15;3.72;;;1.73;;
10432;SDS011;5263;48.680;9.004;2023-08-12T12:07:42;2.35;;;1.48;;
10432;SDS011;5263;48.680;9.004;2023-08-12T12:10:12;2.17;;;1.30;;
10432;SDS011;5263;48.680;9.004;2023-08-12T12:12:38;3.20;;;1.73;;
10432;SDS011;5263;48.680;9.004;2023-08-12T12:15:03;7.32;;;1.45;;
10432;SDS011;5263;48.680;9.004;2023-08-12T12:17:30;9.45;;;2.00;;
10432;SDS011;5263;48.680;9.004;2023-08-12T12:19:56;4.53;;;1.63;;
10432;SDS011;5263;48.680;9.004;2023-08-12T12:22:27;2.10;;;1.60;;
10432;SDS011;5263;48.680;9.004;2023-08-12T12:24:54;3.47;;;1.80;;
10432;SDS011;5263;48.680;9.004;2023-08-12T12:27:22;2.40;;;2.17;;
10432;SDS011;5263;48.680;9.004;2023-08-12T12:29:49;2.60;;;2.40;;
10432;SDS011;5263;48.680;9.004;2023-08-12T12:32:17;2.80;;;1.37;;
10432;SDS011;5263;48.680;9.004;2023-08-12T12:34:43;1.83;;;0.90;;
10432;SDS011;5263;48.680;9.004;2023-08-12T12:37:09;3.37;;;1.40;;
10432;SDS011;5263;48.680;9.004;2023-08-12T12:39:34;2.60;;;1.23;;
10432;SDS011;5263;48.680;9.004;2023-08-12T12:42:00;2.30;;;1.10;;
10432;SDS011;5263;48.680;9.004;2023-08-12T12:44:26;3.10;;;1.67;;
10432;SDS011;5263;48.680;9.004;2023-08-12T12:46:52;3.33;;;1.60;;
10432;SDS011;5263;48.680;9.004;2023-08-12T12:49:18;3.37;;;1.70;;
10432;SDS011;5263;48.680;9.004;2023-08-12T12:51:44;2.83;;;1.77;;
10432;SDS011;5263;48.680;9.004;2023-08-12T12:54:10;4.03;;;1.90;;
10432;SDS011;5263;48.680;9.004;2023-08-12T12:56:35;3.40;;;1.53;;
10432;SDS011;5263;48.680;9.004;2023-08-12T12:59:01;3.33;;;1.77;;
10432;SDS011;5263;48.680;9.004;2023-08-12T13:01:26;5.20;;;1.70;;
10432;SDS011;5263;48.680;9.004;2023-08-12T13:03:52;2.03;;;1.93;;
10432;SDS011;5263;48.680;9.004;2023-08-12T13:06:17;2.70;;;1.73;;
10432;SDS011;5263;48.680;9.004;2023-08-12T13:08:43;3.90;;;1.97;;
10432;SDS011;5263;48.680;9.004;2023-08-12T13:11:08;1.40;;;1.30;;
10432;SDS011;5263;48.680;9.004;2023-08-12T13:13:34;2.83;;;1.70;;
10432;SDS011;5263;48.680;9.004;2023-08-12T13:15:59;2.50;;;2.00;;
10432;SDS011;5263;48.680;9.004;2023-08-12T13:18:25;4.67;;;1.83;;
10432;SDS011;5263;48.680;9.004;2023-08-12T13:20:51;3.10;;;1.90;;
10432;SDS011;5263;48.680;9.004;2023-08-12T13:23:16;4.13;;;1.57;;
10432;SDS011;5263;48.680;9.004;2023-08-12T13:25:42;8.07;;;2.07;;
10432;SDS011;5263;48.680;9.004;2023-08-12T13:28:07;4.40;;;1.70;;
10432;SDS011;5263;48.680;9.004;2023-08-12T13:30:33;2.33;;;1.87;;
10432;SDS011;5263;48.680;9.004;2023-08-12T13:32:58;4.03;;;2.03;;
10432;SDS011;5263;48.680;9.004;2023-08-12T13:35:24;3.00;;;1.37;;
10432;SDS011;5263;48.680;9.004;2023-08-12T13:37:50;3.47;;;1.70;;
10432;SDS011;5263;48.680;9.004;2023-08-12T13:40:18;3.23;;;1.60;;
10432;SDS011;5263;48.680;9.004;2023-08-12T13:42:44;1.08;;;0.85;;
10432;SDS011;5263;48.680;9.004;2023-08-12T13:45:11;1.88;;;1.20;;
10432;SDS011;5263;48.680;9.004;2023-08-12T13:47:37;3.47;;;1.17;;
10432;SDS011;5263;48.680;9.004;2023-08-12T13:50:02;3.17;;;0.98;;
10432;SDS011;5263;48.680;9.004;2023-08-12T13:52:28;3.65;;;0.95;;
10432;SDS011;5263;48.680;9.004;2023-08-12T13:54:54;5.13;;;1.10;;
10432;SDS011;5263;48.680;9.004;2023-08-12T13:57:19;2.90;;;0.98;;
10432;SDS011;5263;48.680;9.004;2023-08-12T13:59:45;2.25;;;0.82;;
10432;SDS011;5263;48.680;9.004;2023-08-12T14:02:12;3.08;;;1.10;;
10432;SDS011;5263;48.680;9.004;2023-08-12T14:04:38;2.45;;;1.20;;
10432;SDS011;5263;48.680;9.004;2023-08-12T14:07:04;1.48;;;1.08;;
10432;SDS011;5263;48.680;9.004;2023-08-12T14:09:29;1.05;;;0.80;;
10432;SDS011;5263;48.680;9.004;2023-08-12T14:11:55;1.10;;;0.68;;
10432;SDS011;5263;48.680;9.004;2023-08-12T14:14:22;0.77;;;0.70;;
10432;SDS011;5263;48.680;9.004;2023-08-12T14:16:47;3.22;;;0.80;;
10432;SDS011;5263;48.680;9.004;2023-08-12T14:19:13;1.02;;;0.73;;
10432;SDS011;5263;48.680;9.004;2023-08-12T14:21:41;1.92;;;0.77;;
10432;SDS011;5263;48.680;9.004;2023-08-12T14:24:07;0.70;;;0.70;;
10432;SDS011;5263;48.680;9.004;2023-08-12T14:26:33;2.05;;;1.10;;
10432;SDS011;5263;48.680;9.004;2023-08-12T14:28:59;2.03;;;0.90;;
10432;SDS011;5263;48.680;9.004;2023-08-12T14:31:25;1.15;;;0.80;;
10432;SDS011;5263;48.680;9.004;2023-08-12T14:33:50;0.75;;;0.63;;
10432;SDS011;5263;48.680;9.004;2023-08-12T14:36:16;0.93;;;0.93;;
10432;SDS011;5263;48.680;9.004;2023-08-12T14:38:41;0.95;;;0.85;;
10432;SDS011;5263;48.680;9.004;2023-08-12T14:41:07;2.53;;;1.00;;
10432;SDS011;5263;48.680;9.004;2023-08-12T14:43:32;3.03;;;0.80;;
10432;SDS011;5263;48.680;9.004;2023-08-12T14:45:58;1.25;;;0.90;;
10432;SDS011;5263;48.680;9.004;2023-08-12T14:48:23;2.15;;;0.90;;
10432;SDS011;5263;48.680;9.004;2023-08-12T14:50:49;2.08;;;0.80;;
10432;SDS011;5263;48.680;9.004;2023-08-12T14:53:14;3.83;;;0.80;;
10432;SDS011;5263;48.680;9.004;2023-08-12T14:55:40;0.57;;;0.57;;
10432;SDS011;5263;48.680;9.004;2023-08-12T14:58:06;1.65;;;0.50;;
10432;SDS011;5263;48.680;9.004;2023-08-12T15:00:31;3.50;;;0.85;;